Time;durP1;ratioP1;P1;durP2;ratioP2;P2;SDS_P1;SDS_P2;PMS_P1;PMS_P2;Temp;Humidity;BMP_temperature;BMP_pressure;BME280_temperature;BME280_humidity;BME280_pressure;Samples;Min_cycle;Max_cycle;Signal;HPM_P1;HPM_P2
2021/11/01 00:00:16;;;;;;;4.93;3.20;;;14.50;99.90;;;;;;4991375;28;20191;-66
2021/11/01 00:02:43;;;;;;;4.00;3.53;;;14.50;99.90;;;;;;4994364;28;20175;-67
2021/11/01 00:05:10;;;;;;;3.53;3.23;;;14.60;99.90;;;;;;4995391;28;20532;-68
2021/11/01 00:07:35;;;;;;;2.83;2.63;;;14.60;99.90;;;;;;4995095;28;20935;-67
2021/11/01 00:10:01;;;;;;;3.90;3.50;;;14.60;99.90;;;;;;4994785;28;20480;-67
2021/11/01 00:12:29;;;;;;;3.23;2.93;;;14.50;99.90;;;;;;4995647;28;20252;-67
2021/11/01 00:14:59;;;;;;;3.30;3.10;;;14.60;99.90;;;;;;4995333;28;20549;-68
2021/11/01 00:17:25;;;;;;;2.90;2.70;;;14.70;99.90;;;;;;4994807;28;20449;-66
2021/11/01 00:19:51;;;;;;;3.87;3.20;;;14.60;99.90;;;;;;4995117;28;20438;-67
2021/11/01 00:22:17;;;;;;;3.27;2.97;;;14.60;99.90;;;;;;4995141;28;20911;-67
2021/11/01 00:24:43;;;;;;;3.67;3.37;;;14.50;99.90;;;;;;4994998;28;20461;-66
2021/11/01 00:27:08;;;;;;;3.13;2.83;;;14.50;99.90;;;;;;4995152;28;20182;-67
2021/11/01 00:29:34;;;;;;;2.10;1.90;;;14.60;99.90;;;;;;4994851;28;20204;-67
2021/11/01 00:32:00;;;;;;;1.73;1.63;;;14.70;99.90;;;;;;4995110;28;20179;-66
2021/11/01 00:34:26;;;;;;;1.73;1.50;;;14.90;99.90;;;;;;5026573;28;20853;-68
2021/11/01 00:36:53;;;;;;;4.70;1.60;;;15.10;99.90;;;;;;4995007;28;20612;-68
2021/11/01 00:39:19;;;;;;;1.80;1.50;;;15.20;99.90;;;;;;4994541;28;20342;-68
2021/11/01 00:41:45;;;;;;;3.37;2.03;;;15.20;99.90;;;;;;4994883;28;20414;-67
2021/11/01 00:44:10;;;;;;;1.60;1.50;;;15.30;99.90;;;;;;4994819;28;20938;-68
2021/11/01 00:46:36;;;;;;;1.90;1.80;;;15.30;99.90;;;;;;4994773;28;20170;-67
2021/11/01 00:49:03;;;;;;;3.23;1.67;;;15.40;99.90;;;;;;4994664;28;20192;-68
2021/11/01 00:51:29;;;;;;;1.67;1.57;;;15.50;99.90;;;;;;4994752;28;20176;-67
2021/11/01 00:53:54;;;;;;;1.50;1.40;;;15.50;99.90;;;;;;4994762;28;20477;-67
2021/11/01 00:56:20;;;;;;;2.60;1.80;;;15.40;99.90;;;;;;4994649;28;20229;-67
2021/11/01 00:58:46;;;;;;;1.80;1.30;;;15.40;99.90;;;;;;4994348;28;20731;-67
2021/11/01 01:01:15;;;;;;;1.53;1.43;;;15.50;99.90;;;;;;4994465;28;20611;-67
2021/11/01 01:03:43;;;;;;;1.63;1.53;;;15.60;99.90;;;;;;4995029;28;20840;-67
2021/11/01 01:06:08;;;;;;;3.13;1.20;;;15.60;99.90;;;;;;4994437;28;20429;-67
2021/11/01 01:08:34;;;;;;;1.17;1.17;;;15.70;99.90;;;;;;4994209;28;20442;-67
2021/11/01 01:11:00;;;;;;;1.10;1.10;;;15.70;99.90;;;;;;4994413;28;20625;-67
2021/11/01 01:13:29;;;;;;;1.80;1.70;;;15.70;99.90;;;;;;4993976;28;20249;-67
2021/11/01 01:18:38;;;;;;;1.93;1.70;;;15.70;99.90;;;;;;4994047;28;20877;-68
2021/11/01 01:23:49;;;;;;;1.43;1.33;;;15.60;99.90;;;;;;4994019;28;20514;-67
2021/11/01 01:26:15;;;;;;;3.00;1.53;;;15.60;99.90;;;;;;4994030;28;20514;-67
2021/11/01 01:28:42;;;;;;;1.67;1.57;;;15.60;99.90;;;;;;4993568;28;20230;-67
2021/11/01 01:31:08;;;;;;;1.40;1.30;;;15.60;99.90;;;;;;4994021;28;20426;-67
2021/11/01 01:33:33;;;;;;;1.60;1.50;;;15.60;99.90;;;;;;4994052;28;20433;-68
2021/11/01 01:35:59;;;;;;;3.13;1.27;;;15.50;99.90;;;;;;4993924;28;20545;-67
2021/11/01 01:38:26;;;;;;;2.53;1.30;;;15.50;99.90;;;;;;4993490;28;20183;-67
2021/11/01 01:40:53;;;;;;;3.13;1.60;;;15.50;99.90;;;;;;4993738;28;20176;-67
2021/11/01 01:43:19;;;;;;;1.63;1.53;;;15.40;99.90;;;;;;4993808;28;20466;-68
2021/11/01 01:45:45;;;;;;;1.47;1.37;;;15.40;99.90;;;;;;4993853;28;20526;-67
2021/11/01 01:48:12;;;;;;;1.53;1.43;;;15.40;99.90;;;;;;4993335;28;20187;-67
2021/11/01 01:50:38;;;;;;;1.70;1.60;;;15.40;99.90;;;;;;4993561;28;20164;-67
2021/11/01 01:53:03;;;;;;;1.70;1.60;;;15.40;99.90;;;;;;4993570;28;20418;-67
2021/11/01 01:55:30;;;;;;;1.83;1.63;;;15.40;99.90;;;;;;4993413;28;20176;-67
2021/11/01 01:57:57;;;;;;;1.30;1.20;;;15.40;99.90;;;;;;4993313;28;20250;-67
2021/11/01 02:00:35;;;;;;;1.67;1.57;;;15.40;99.90;;;;;;4993355;28;20454;-67
2021/11/01 02:03:01;;;;;;;1.53;1.43;;;15.40;99.90;;;;;;4993364;28;20509;-66
2021/11/01 02:05:40;;;;;;;5.43;1.70;;;15.10;99.90;;;;;;4993311;28;20654;-67
2021/11/01 02:08:09;;;;;;;2.03;1.80;;;14.90;99.90;;;;;;5024562;28;20190;-67
2021/11/01 02:10:42;;;;;;;1.57;1.40;;;14.80;99.90;;;;;;4993300;28;20429;-67
2021/11/01 02:13:15;;;;;;;2.70;1.50;;;14.70;99.90;;;;;;4993331;28;20845;-68
2021/11/01 02:15:46;;;;;;;2.13;1.73;;;14.60;99.90;;;;;;4993287;28;20433;-66
2021/11/01 02:18:14;;;;;;;3.10;1.93;;;14.50;99.90;;;;;;4992781;28;20419;-67
2021/11/01 02:20:47;;;;;;;2.33;1.60;;;14.40;99.90;;;;;;4993080;28;20441;-67
2021/11/01 02:23:35;;;;;;;3.10;1.77;;;14.30;99.90;;;;;;4992985;28;20427;-68
2021/11/01 02:26:03;;;;;;;1.90;1.10;;;14.00;99.90;;;;;;4992549;28;20458;-67
2021/11/01 02:28:31;;;;;;;2.40;1.80;;;13.70;99.90;;;;;;4992561;28;20492;-67
2021/11/01 02:30:58;;;;;;;2.17;1.63;;;13.50;99.90;;;;;;4992793;28;20427;-67
2021/11/01 02:33:25;;;;;;;1.93;1.77;;;13.40;99.90;;;;;;4992769;28;20522;-68
2021/11/01 02:35:52;;;;;;;2.47;1.23;;;13.20;99.90;;;;;;4992723;28;20428;-67
2021/11/01 02:38:21;;;;;;;2.73;1.10;;;13.10;99.90;;;;;;4992279;28;20485;-67
2021/11/01 02:40:48;;;;;;;2.10;1.00;;;12.90;99.90;;;;;;4992675;28;20962;-67
2021/11/01 02:43:14;;;;;;;1.87;1.07;;;12.80;99.90;;;;;;4992602;28;20454;-66
2021/11/01 02:45:40;;;;;;;1.40;0.90;;;12.60;99.90;;;;;;4992489;28;20471;-66
2021/11/01 02:48:06;;;;;;;1.80;1.07;;;12.50;99.90;;;;;;4990921;28;20482;-67
2021/11/01 02:50:33;;;;;;;5.20;1.60;;;12.50;99.90;;;;;;4992601;28;20176;-66
2021/11/01 02:52:58;;;;;;;3.40;3.10;;;12.50;99.90;;;;;;4992536;28;20415;-67
2021/11/01 02:55:24;;;;;;;1.37;1.20;;;12.50;99.90;;;;;;4992522;28;20430;-67
2021/11/01 02:57:51;;;;;;;2.23;0.90;;;12.60;99.90;;;;;;4992197;28;20194;-67
2021/11/01 03:00:20;;;;;;;1.90;1.43;;;12.70;99.90;;;;;;4992398;28;20191;-67
2021/11/01 03:02:47;;;;;;;3.90;2.13;;;12.70;99.90;;;;;;4992296;28;20422;-67
2021/11/01 03:05:16;;;;;;;1.93;1.10;;;12.80;99.90;;;;;;4992425;28;20963;-67
2021/11/01 03:07:42;;;;;;;1.40;1.30;;;12.80;99.90;;;;;;4992039;28;20501;-68
2021/11/01 03:10:09;;;;;;;5.53;1.03;;;12.80;99.90;;;;;;4992795;28;20806;-67
2021/11/01 03:12:37;;;;;;;2.60;1.30;;;12.80;99.90;;;;;;4992323;28;20415;-67
2021/11/01 03:15:06;;;;;;;1.43;1.00;;;12.80;99.90;;;;;;4992362;28;20494;-67
2021/11/01 03:17:37;;;;;;;2.70;1.40;;;12.80;99.90;;;;;;4991912;28;20426;-66
2021/11/01 03:20:07;;;;;;;5.80;1.07;;;12.70;99.90;;;;;;4992193;28;20443;-66
2021/11/01 03:22:37;;;;;;;5.30;1.33;;;12.80;99.90;;;;;;4992239;28;20602;-67
2021/11/01 03:25:09;;;;;;;4.57;1.60;;;12.80;99.90;;;;;;4992055;28;20454;-67
2021/11/01 03:27:40;;;;;;;3.10;1.50;;;12.80;99.90;;;;;;4991351;28;20497;-67
2021/11/01 03:30:06;;;;;;;1.63;1.20;;;12.70;99.90;;;;;;4992038;28;20516;-67
2021/11/01 03:32:32;;;;;;;2.07;1.20;;;12.70;99.90;;;;;;4992070;28;20419;-66
2021/11/01 03:35:01;;;;;;;4.50;1.10;;;12.70;99.90;;;;;;4992159;28;20558;-68
2021/11/01 03:37:29;;;;;;;1.93;1.03;;;12.60;99.90;;;;;;4995616;28;20957;-67
2021/11/01 03:39:56;;;;;;;2.30;1.10;;;12.70;99.90;;;;;;4995880;28;20446;-66
2021/11/01 03:42:21;;;;;;;3.37;1.50;;;12.60;99.90;;;;;;4995975;28;20422;-67
2021/11/01 03:44:52;;;;;;;3.03;2.07;;;12.70;99.90;;;;;;4996109;28;20948;-68
2021/11/01 03:47:18;;;;;;;4.27;1.80;;;12.70;99.90;;;;;;4995633;28;20263;-67
2021/11/01 03:49:56;;;;;;;2.40;1.20;;;12.70;99.90;;;;;;4995878;28;20920;-67
2021/11/01 03:52:23;;;;;;;3.80;1.37;;;12.60;99.90;;;;;;4995829;28;20411;-67
2021/11/01 03:54:51;;;;;;;3.47;1.57;;;12.50;99.90;;;;;;4996001;28;20506;-67
2021/11/01 03:57:18;;;;;;;3.40;1.53;;;12.40;99.90;;;;;;4995410;28;20426;-67
2021/11/01 03:59:44;;;;;;;6.03;1.97;;;12.40;99.90;;;;;;4995622;28;20820;-67
2021/11/01 04:02:13;;;;;;;4.97;1.33;;;12.30;99.90;;;;;;4995504;28;20426;-67
2021/11/01 04:04:41;;;;;;;3.30;1.10;;;12.30;99.90;;;;;;4995477;28;20489;-66
2021/11/01 04:07:07;;;;;;;1.67;0.90;;;12.30;99.90;;;;;;4995494;28;20450;-67
2021/11/01 04:09:33;;;;;;;2.17;1.20;;;12.10;99.90;;;;;;4995207;28;20528;-66
2021/11/01 04:11:58;;;;;;;1.83;1.03;;;12.10;99.90;;;;;;4995492;28;20427;-67
2021/11/01 04:14:27;;;;;;;4.57;1.30;;;11.90;99.90;;;;;;4995394;28;20238;-67
2021/11/01 04:17:00;;;;;;;3.47;1.20;;;11.90;99.90;;;;;;4995374;28;20692;-67
2021/11/01 04:21:52;;;;;;;1.63;1.00;;;11.70;99.90;;;;;;4995684;28;20446;-67
2021/11/01 04:24:19;;;;;;;9.03;1.73;;;11.60;99.90;;;;;;4995217;28;20594;-67
2021/11/01 04:26:45;;;;;;;6.10;1.30;;;11.50;99.90;;;;;;4995382;28;20430;-67
2021/11/01 04:29:12;;;;;;;4.23;1.10;;;11.50;99.90;;;;;;4995438;28;20454;-66
2021/11/01 04:31:41;;;;;;;4.63;1.17;;;11.50;99.90;;;;;;4995149;28;20924;-66
2021/11/01 04:36:41;;;;;;;3.20;1.00;;;11.60;99.90;;;;;;4995373;28;20426;-66
2021/11/01 04:39:16;;;;;;;1.40;1.30;;;11.60;99.90;;;;;;5026270;28;21051;-66
2021/11/01 04:55:10;;;;;;;2.43;1.30;;;11.70;99.90;;;;;;4995004;28;20501;-66
2021/11/01 04:57:36;;;;;;;3.03;1.00;;;11.80;99.90;;;;;;4994575;28;20517;-66
2021/11/01 05:00:04;;;;;;;5.27;1.23;;;11.80;99.90;;;;;;4994625;28;20439;-66
2021/11/01 05:02:29;;;;;;;2.33;1.07;;;11.80;99.90;;;;;;4994695;28;20425;-67
2021/11/01 05:04:55;;;;;;;2.30;1.00;;;11.80;99.90;;;;;;4994176;28;21023;-66
2021/11/01 05:07:21;;;;;;;3.70;1.10;;;11.70;99.90;;;;;;4994401;28;20526;-66
2021/11/01 05:12:30;;;;;;;2.23;1.40;;;11.50;99.90;;;;;;4994803;28;20419;-66
2021/11/01 05:15:04;;;;;;;4.07;1.73;;;11.50;99.90;;;;;;4994539;28;20175;-66
2021/11/01 05:17:40;;;;;;;3.37;1.37;;;11.50;99.90;;;;;;4994315;28;20419;-66
2021/11/01 05:20:13;;;;;;;4.60;1.50;;;11.50;99.90;;;;;;4994425;28;20434;-66
2021/11/01 05:22:52;;;;;;;3.27;1.40;;;11.50;99.90;;;;;;4994544;28;20538;-66
2021/11/01 05:25:25;;;;;;;1.93;1.23;;;11.50;99.90;;;;;;4994283;28;20512;-66
2021/11/01 05:30:42;;;;;;;5.90;2.10;;;11.40;99.90;;;;;;4994024;28;20901;-66
2021/11/01 05:35:36;;;;;;;2.13;1.33;;;11.40;99.90;;;;;;4994244;28;20426;-66
2021/11/01 05:38:03;;;;;;;8.17;1.90;;;11.40;99.90;;;;;;4993842;28;20942;-66
2021/11/01 05:40:28;;;;;;;3.20;1.50;;;11.40;99.90;;;;;;4993826;28;20207;-66
2021/11/01 05:42:54;;;;;;;2.80;1.50;;;11.40;99.90;;;;;;4993902;28;20423;-66
2021/11/01 05:45:20;;;;;;;4.40;1.30;;;11.50;99.90;;;;;;4993794;28;20230;-66
2021/11/01 05:47:51;;;;;;;3.37;1.33;;;11.40;99.90;;;;;;4993550;28;20222;-66
2021/11/01 05:50:17;;;;;;;5.63;1.67;;;11.50;99.90;;;;;;4993807;28;20464;-66
2021/11/01 05:52:44;;;;;;;3.50;1.30;;;11.50;99.90;;;;;;4993791;28;20963;-66
2021/11/01 05:55:24;;;;;;;4.43;1.30;;;11.50;99.90;;;;;;4993783;28;20198;-66
2021/11/01 06:03:14;;;;;;;1.83;1.30;;;11.50;99.90;;;;;;4993632;28;20889;-66
2021/11/01 06:15:52;;;;;;;3.03;1.17;;;11.50;99.90;;;;;;4993429;28;20419;-66
2021/11/01 06:18:18;;;;;;;5.40;1.50;;;11.50;99.90;;;;;;4992898;28;20442;-67
2021/11/01 06:20:43;;;;;;;2.20;1.20;;;11.50;99.90;;;;;;4993377;28;20180;-66
2021/11/01 06:23:09;;;;;;;3.13;1.30;;;11.40;99.90;;;;;;4993281;28;20637;-66
2021/11/01 06:25:36;;;;;;;1.30;1.00;;;11.30;99.90;;;;;;4993156;28;20254;-66
2021/11/01 06:28:02;;;;;;;2.57;1.10;;;11.10;99.90;;;;;;4992919;28;20175;-66
2021/11/01 06:30:32;;;;;;;1.20;1.10;;;11.10;99.90;;;;;;4993003;28;20466;-66
2021/11/01 06:41:30;;;;;;;1.60;1.30;;;10.60;99.90;;;;;;4993102;28;20803;-66
2021/11/01 07:19:07;;;;;;;4.63;1.60;;;9.90;99.90;;;;;;4999084;28;20450;-66
2021/11/01 07:21:50;;;;;;;2.50;1.30;;;9.90;99.90;;;;;;4999122;28;21017;-66
2021/11/01 08:21:46;;;;;;;2.70;2.10;;;9.60;99.90;;;;;;4978226;28;20963;-66
2021/11/01 08:37:48;;;;;;;1.10;0.80;;;9.70;99.90;;;;;;4975773;28;20427;-66
2021/11/01 08:40:39;;;;;;;1.23;1.07;;;9.70;99.90;;;;;;4975661;28;20435;-66
2021/11/01 08:43:27;;;;;;;2.10;1.37;;;9.60;99.90;;;;;;4975768;28;20475;-66
2021/11/01 08:51:43;;;;;;;0.97;0.73;;;9.70;99.90;;;;;;4975832;28;20481;-66
2021/11/01 09:19:02;;;;;;;1.47;1.20;;;9.80;99.90;;;;;;4972386;28;21002;-67
2021/11/01 09:21:39;;;;;;;1.73;1.20;;;9.70;99.90;;;;;;4974708;28;20522;-67
2021/11/01 09:26:49;;;;;;;2.13;1.30;;;9.70;99.90;;;;;;4974876;28;20527;-67
2021/11/01 09:29:23;;;;;;;1.93;1.10;;;9.70;99.90;;;;;;4974385;28;20483;-67
2021/11/01 09:42:52;;;;;;;1.53;1.10;;;9.90;99.90;;;;;;4974896;28;20804;-66
2021/11/01 09:45:20;;;;;;;1.90;1.50;;;10.00;99.90;;;;;;4974590;28;20459;-66
2021/11/01 09:47:46;;;;;;;1.23;0.97;;;10.00;99.90;;;;;;4974305;28;20423;-66
2021/11/01 09:50:15;;;;;;;2.27;1.70;;;10.10;99.90;;;;;;4974499;28;20440;-66
2021/11/01 09:52:43;;;;;;;2.30;1.17;;;10.10;99.90;;;;;;4974448;28;20423;-66
2021/11/01 09:55:39;;;;;;;2.00;0.97;;;10.20;99.90;;;;;;4989303;28;20431;-66
2021/11/01 10:00:49;;;;;;;2.80;1.30;;;10.30;99.90;;;;;;4974635;28;20459;-66
2021/11/01 10:03:15;;;;;;;2.20;1.13;;;10.20;99.90;;;;;;4974302;28;20950;-66
2021/11/01 10:05:53;;;;;;;1.10;1.00;;;10.20;99.90;;;;;;4974216;28;20222;-67
2021/11/01 10:08:19;;;;;;;1.20;1.03;;;10.10;99.90;;;;;;4974001;28;20168;-66
2021/11/01 10:10:44;;;;;;;1.83;1.20;;;10.00;99.90;;;;;;4974314;28;20782;-67
2021/11/01 10:13:14;;;;;;;1.80;1.13;;;10.00;99.90;;;;;;4974301;28;20200;-67
2021/11/01 10:18:24;;;;;;;1.20;1.00;;;10.00;99.90;;;;;;4988285;28;21043;-66
2021/11/01 10:20:53;;;;;;;1.00;1.00;;;10.10;99.90;;;;;;4990395;28;20509;-66
2021/11/01 10:23:25;;;;;;;1.73;0.90;;;10.10;99.90;;;;;;4990050;28;20435;-66
2021/11/01 10:25:53;;;;;;;0.87;0.83;;;10.10;99.90;;;;;;4990187;28;20474;-66
2021/11/01 10:28:29;;;;;;;3.80;1.10;;;10.10;99.90;;;;;;4989931;28;20427;-66
2021/11/01 10:31:25;;;;;;;1.20;1.10;;;10.10;99.90;;;;;;4990496;28;20509;-66
2021/11/01 10:34:03;;;;;;;1.23;1.00;;;10.10;99.90;;;;;;4977410;28;20478;-66
2021/11/01 10:36:34;;;;;;;1.47;1.37;;;10.10;99.90;;;;;;4990040;28;20462;-65
2021/11/01 10:39:10;;;;;;;1.37;1.10;;;10.10;99.90;;;;;;4989540;28;20860;-66
2021/11/01 10:41:50;;;;;;;1.50;1.40;;;10.10;99.90;;;;;;4989899;28;20433;-66
2021/11/01 11:12:03;;;;;;;1.70;0.90;;;10.50;99.90;;;;;;4989744;28;20434;-65
2021/11/01 11:19:42;;;;;;;1.73;1.53;;;10.60;99.90;;;;;;4989257;28;20797;-65
2021/11/01 11:27:41;;;;;;;1.53;1.20;;;10.80;99.90;;;;;;4989073;28;20461;-66
2021/11/01 11:49:45;;;;;;;1.80;1.20;;;11.10;99.90;;;;;;5008509;28;20476;-67
2021/11/01 11:52:14;;;;;;;2.53;2.00;;;11.10;99.90;;;;;;5008633;28;20927;-65
2021/11/01 11:54:44;;;;;;;1.43;1.33;;;10.90;99.90;;;;;;5008379;28;20238;-66
2021/11/01 11:57:25;;;;;;;1.70;1.30;;;11.00;99.90;;;;;;5010118;28;20422;-66
2021/11/01 11:59:54;;;;;;;3.07;1.33;;;10.90;99.90;;;;;;5002501;28;20455;-62
2021/11/01 12:02:33;;;;;;;4.70;1.53;;;10.90;99.90;;;;;;4973263;28;20921;-63
2021/11/01 12:05:11;;;;;;;3.37;1.40;;;11.00;99.90;;;;;;4972869;28;21059;-63
2021/11/01 12:07:59;;;;;;;2.40;1.63;;;11.00;99.90;;;;;;4972599;28;20423;-68
2021/11/01 12:18:52;;;;;;;1.70;1.47;;;11.00;99.90;;;;;;4991919;28;20454;-66
2021/11/01 12:21:19;;;;;;;1.70;1.43;;;11.00;99.90;;;;;;4992134;28;20411;-66
2021/11/01 12:23:45;;;;;;;2.67;1.87;;;10.90;99.90;;;;;;4992133;28;20518;-66
2021/11/01 12:26:13;;;;;;;2.37;2.10;;;11.00;99.90;;;;;;4992058;28;20458;-66
2021/11/01 12:28:41;;;;;;;1.57;1.40;;;11.00;99.90;;;;;;4991749;28;20450;-66
2021/11/01 12:31:11;;;;;;;1.43;1.10;;;11.00;99.90;;;;;;4991980;28;20430;-66
2021/11/01 12:33:39;;;;;;;2.60;1.97;;;10.90;99.90;;;;;;4991819;28;20442;-66
2021/11/01 12:36:08;;;;;;;3.27;2.03;;;10.90;99.90;;;;;;4991812;28;20434;-66
2021/11/01 12:38:45;;;;;;;1.73;1.40;;;10.90;99.90;;;;;;4991742;28;20944;-66
2021/11/01 12:41:27;;;;;;;1.87;1.77;;;10.80;99.90;;;;;;4991921;28;20931;-66
2021/11/01 12:44:41;;;;;;;1.70;1.60;;;10.70;99.90;;;;;;4991730;28;20422;-67
2021/11/01 12:49:45;;;;;;;2.63;1.80;;;10.80;99.90;;;;;;4991679;28;20454;-66
2021/11/01 12:57:31;;;;;;;2.13;1.93;;;10.80;99.90;;;;;;4991294;28;20431;-66
2021/11/01 12:59:59;;;;;;;3.03;1.60;;;10.80;99.90;;;;;;4991397;28;20443;-66
2021/11/01 13:02:26;;;;;;;2.00;1.90;;;10.80;99.90;;;;;;4991526;28;20418;-66
2021/11/01 13:04:53;;;;;;;11.63;1.97;;;10.90;99.90;;;;;;4991221;28;20477;-66
2021/11/01 13:08:12;;;;;;;2.23;1.60;;;10.90;99.90;;;;;;4991306;28;20983;-66
2021/11/01 13:18:29;;;;;;;3.50;3.10;;;10.90;99.90;;;;;;4990660;28;20535;-66
2021/11/01 13:21:01;;;;;;;2.20;1.93;;;10.90;99.90;;;;;;4991072;28;20928;-66
2021/11/01 13:23:32;;;;;;;2.77;1.83;;;10.80;99.90;;;;;;4991109;28;20517;-66
2021/11/01 13:26:07;;;;;;;2.40;2.20;;;10.90;99.90;;;;;;4991034;28;20466;-66
2021/11/01 13:39:59;;;;;;;2.03;1.80;;;10.90;99.90;;;;;;4990663;28;20533;-66
2021/11/01 13:42:25;;;;;;;3.50;2.00;;;10.90;99.90;;;;;;4990648;28;20426;-67
2021/11/01 13:44:50;;;;;;;2.73;2.40;;;10.90;99.90;;;;;;4990620;28;20823;-67
2021/11/01 13:47:17;;;;;;;4.73;2.77;;;10.90;99.90;;;;;;4990387;28;20233;-66
2021/11/01 13:49:46;;;;;;;2.90;2.10;;;10.90;99.90;;;;;;4990407;28;20650;-66
2021/11/01 13:58:19;;;;;;;3.37;2.33;;;10.90;99.90;;;;;;4990451;28;20446;-66
2021/11/01 14:01:07;;;;;;;3.00;2.30;;;10.90;99.90;;;;;;4990183;28;20438;-66
2021/11/01 14:12:07;;;;;;;3.10;2.67;;;11.10;99.90;;;;;;4990267;28;20442;-64
2021/11/01 14:20:28;;;;;;;3.20;2.23;;;11.30;99.90;;;;;;4989224;28;20455;-64
2021/11/01 14:28:57;;;;;;;4.27;1.80;;;11.20;99.90;;;;;;4948042;28;20471;-64
2021/11/01 15:12:30;;;;;;;3.30;1.80;;;11.20;99.90;;;;;;4989166;28;20493;-65
2021/11/01 15:17:37;;;;;;;3.30;2.63;;;11.20;99.90;;;;;;4988930;28;20537;-65
2021/11/01 15:28:27;;;;;;;2.90;2.13;;;11.40;99.90;;;;;;4988831;28;20473;-65
2021/11/01 15:34:16;;;;;;;4.47;2.77;;;11.10;99.90;;;;;;4992972;28;20504;-65
2021/11/01 16:19:39;;;;;;;3.50;2.83;;;10.50;99.90;;;;;;4992005;28;20469;-65
2021/11/01 16:22:06;;;;;;;3.57;3.27;;;10.50;99.90;;;;;;4992480;28;20423;-65
2021/11/01 16:24:35;;;;;;;4.30;2.27;;;10.50;99.90;;;;;;4990707;28;20577;-65
2021/11/01 16:27:01;;;;;;;3.00;2.13;;;10.50;99.90;;;;;;4992080;28;20533;-65
2021/11/01 16:29:39;;;;;;;4.27;3.00;;;10.60;99.90;;;;;;5013749;23;20997;-72
2021/11/01 16:32:08;;;;;;;3.63;3.30;;;10.50;99.90;;;;;;4992081;28;20507;-72
2021/11/01 16:34:36;;;;;;;3.53;3.23;;;10.50;99.90;;;;;;4992230;28;20426;-72
2021/11/01 16:39:48;;;;;;;4.20;3.13;;;10.60;99.90;;;;;;4991854;28;20434;-72
2021/11/01 16:42:16;;;;;;;4.67;3.37;;;10.70;99.90;;;;;;4992191;28;20419;-72
2021/11/01 16:44:43;;;;;;;4.20;2.83;;;10.70;99.90;;;;;;4991098;28;20966;-72
2021/11/01 16:47:10;;;;;;;3.70;3.23;;;10.60;99.90;;;;;;4990443;28;20423;-72
2021/11/01 16:49:36;;;;;;;5.10;2.50;;;10.50;99.90;;;;;;4991696;28;20457;-72
2021/11/01 16:52:12;;;;;;;5.00;2.60;;;10.50;99.90;;;;;;4991920;28;20419;-72
2021/11/01 16:54:40;;;;;;;2.50;2.30;;;10.50;99.90;;;;;;4992003;28;20414;-71
2021/11/01 16:57:17;;;;;;;3.10;2.80;;;10.50;99.90;;;;;;4991823;28;20494;-71
2021/11/01 16:59:55;;;;;;;3.20;2.70;;;10.50;99.90;;;;;;4991542;28;20450;-72
2021/11/01 17:02:38;;;;;;;4.40;3.00;;;10.50;99.90;;;;;;4991658;28;20423;-71
2021/11/01 17:08:16;;;;;;;3.30;3.00;;;10.50;99.90;;;;;;4991515;28;20517;-72
2021/11/01 17:27:52;;;;;;;3.87;3.43;;;10.20;99.90;;;;;;4949575;28;20516;-72
2021/11/01 17:36:21;;;;;;;9.53;4.30;;;9.90;99.90;;;;;;4978556;28;20218;-72
2021/11/01 18:37:55;;;;;;;4.83;4.33;;;9.70;99.90;;;;;;4989803;28;20469;-71
2021/11/01 18:45:44;;;;;;;5.60;5.03;;;9.60;99.90;;;;;;4989185;28;20569;-71
2021/11/01 18:53:44;;;;;;;6.10;4.23;;;9.40;99.90;;;;;;4989188;28;20446;-71
2021/11/01 18:56:12;;;;;;;3.97;3.57;;;9.30;99.90;;;;;;4989328;28;20453;-72
2021/11/01 18:58:40;;;;;;;3.80;3.40;;;9.30;99.90;;;;;;4988716;28;20525;-75
2021/11/01 19:01:12;;;;;;;4.17;3.77;;;9.20;99.90;;;;;;4995479;28;20596;-71
2021/11/01 19:03:45;;;;;;;4.20;3.70;;;9.20;99.90;;;;;;4989002;28;20443;-73
2021/11/01 19:12:43;;;;;;;3.03;2.83;;;9.00;99.90;;;;;;4990345;28;20459;-73
2021/11/01 21:27:21;;;;;;;3.03;2.70;;;7.70;99.90;;;;;;4990630;28;20497;-70
2021/11/01 21:29:47;;;;;;;4.03;2.83;;;7.60;99.90;;;;;;4983120;28;20568;-70
2021/11/01 21:32:13;;;;;;;2.70;2.50;;;7.50;99.90;;;;;;4990097;28;21015;-70
2021/11/01 21:34:42;;;;;;;4.70;3.80;;;7.50;99.90;;;;;;4995792;28;20439;-71
2021/11/01 21:37:09;;;;;;;5.07;3.70;;;7.40;99.90;;;;;;4990609;28;20182;-70
2021/11/01 21:39:36;;;;;;;4.40;3.90;;;7.40;99.90;;;;;;5022137;28;21082;-70
2021/11/01 21:42:02;;;;;;;6.07;2.93;;;7.40;99.90;;;;;;4990356;28;20479;-70
2021/11/01 21:44:31;;;;;;;3.33;3.07;;;7.50;99.90;;;;;;4990287;28;20446;-70
2021/11/01 21:46:57;;;;;;;2.60;2.40;;;7.40;99.90;;;;;;4990843;28;20446;-70
2021/11/01 21:49:23;;;;;;;4.47;4.07;;;7.40;99.90;;;;;;4990110;28;20466;-74
2021/11/01 21:51:48;;;;;;;3.33;3.03;;;7.40;99.90;;;;;;4989052;28;20210;-70
2021/11/01 21:54:28;;;;;;;3.30;3.00;;;7.40;99.90;;;;;;4983117;28;20638;-70
2021/11/01 21:57:06;;;;;;;4.43;3.13;;;7.40;99.90;;;;;;4987906;28;20899;-70
2021/11/01 22:10:42;;;;;;;7.50;6.90;;;7.30;99.90;;;;;;4990121;28;20465;-70
2021/11/01 22:19:01;;;;;;;5.73;3.43;;;7.20;99.90;;;;;;4989778;28;21255;-70
2021/11/01 22:24:06;;;;;;;4.30;2.50;;;7.20;99.90;;;;;;4992007;28;20446;-70
2021/11/01 22:26:50;;;;;;;4.00;3.00;;;7.10;99.90;;;;;;4990174;28;20493;-70
2021/11/01 22:42:56;;;;;;;5.67;3.17;;;6.90;99.90;;;;;;4989149;28;20426;-64
2021/11/01 22:45:26;;;;;;;4.93;2.70;;;6.90;99.90;;;;;;4990915;28;20544;-65
2021/11/01 22:58:43;;;;;;;2.60;2.40;;;7.40;99.90;;;;;;4984080;28;20467;-64
2021/11/01 23:01:18;;;;;;;3.10;2.17;;;7.40;99.90;;;;;;4973774;28;20483;-65
2021/11/01 23:33:30;;;;;;;3.40;3.10;;;7.70;99.90;;;;;;4991897;28;20443;-64
2021/11/01 23:35:56;;;;;;;2.20;2.00;;;7.70;99.90;;;;;;4992212;28;20916;-64
2021/11/01 23:38:22;;;;;;;2.80;2.07;;;7.80;99.90;;;;;;4992071;28;20863;-64
2021/11/01 23:40:48;;;;;;;2.27;2.00;;;7.80;99.90;;;;;;4991829;28;20199;-64
2021/11/01 23:43:14;;;;;;;2.43;2.23;;;7.90;99.90;;;;;;4992151;28;20290;-64
2021/11/01 23:45:42;;;;;;;3.63;2.73;;;7.90;99.90;;;;;;4992144;28;20549;-65
2021/11/01 23:48:08;;;;;;;5.40;2.90;;;7.90;99.90;;;;;;4991615;28;20496;-64
2021/11/01 23:50:34;;;;;;;2.50;2.13;;;8.00;99.90;;;;;;4991874;28;20542;-64
2021/11/01 23:53:16;;;;;;;3.03;2.00;;;8.00;99.90;;;;;;4993774;28;20415;-64
2021/11/01 23:55:42;;;;;;;2.80;2.43;;;8.10;99.90;;;;;;4995887;28;20431;-64
2021/11/01 23:58:08;;;;;;;2.80;2.40;;;8.20;99.90;;;;;;4995113;28;20837;-65
